createdAt,value
2017-11-21T00:00:37.559Z,59.50
2017-11-21T00:01:44.002Z,59.50
2017-11-21T00:02:50.132Z,59.50
2017-11-21T00:03:57.435Z,59.60
2017-11-21T00:05:02.939Z,59.40
2017-11-21T00:06:08.078Z,59.50
2017-11-21T00:07:13.198Z,59.40
2017-11-21T00:08:18.637Z,59.40
2017-11-21T00:09:23.764Z,59.40
2017-11-21T00:10:28.818Z,59.30
2017-11-21T00:11:33.956Z,59.30
2017-11-21T00:12:39.037Z,59.40
2017-11-21T00:13:44.182Z,59.30
2017-11-21T00:14:49.242Z,59.40
2017-11-21T00:15:54.152Z,59.50
2017-11-21T00:16:59.700Z,59.40
2017-11-21T00:18:05.077Z,59.40
2017-11-21T00:19:10.407Z,59.50
2017-11-21T00:20:15.570Z,59.40
2017-11-21T00:21:21.265Z,59.40
2017-11-21T00:22:26.253Z,59.40
2017-11-21T00:23:31.455Z,59.40
2017-11-21T00:24:36.609Z,59.30
2017-11-21T00:25:41.892Z,59.30
2017-11-21T00:26:47.223Z,59.30
2017-11-21T00:27:52.363Z,59.40
2017-11-21T00:28:57.351Z,59.40
2017-11-21T00:30:03.034Z,59.30
2017-11-21T00:31:08.894Z,59.50
2017-11-21T00:32:13.889Z,59.30
2017-11-21T00:33:19.012Z,59.30
2017-11-21T00:34:24.414Z,59.30
2017-11-21T00:35:29.557Z,59.30
2017-11-21T00:36:34.481Z,59.30
2017-11-21T00:37:40.593Z,59.30
2017-11-21T00:38:45.923Z,59.30
2017-11-21T00:39:50.747Z,59.20
2017-11-21T00:40:55.421Z,59.20
2017-11-21T00:42:00.531Z,59.20
2017-11-21T00:43:05.884Z,59.20
2017-11-21T00:44:10.576Z,59.20
2017-11-21T00:45:15.215Z,59.20
2017-11-21T00:46:20.809Z,59.20
2017-11-21T00:47:25.701Z,59.20
2017-11-21T00:48:30.491Z,59.20
2017-11-21T00:49:35.222Z,59.30
2017-11-21T00:50:39.957Z,59.20
2017-11-21T00:51:44.816Z,59.30
2017-11-21T00:52:49.665Z,59.30
2017-11-21T00:53:54.438Z,59.30
2017-11-21T00:54:59.543Z,59.30
2017-11-21T00:56:04.272Z,59.30
2017-11-21T00:57:09.168Z,59.30
2017-11-21T00:58:13.784Z,59.30
2017-11-21T00:59:18.563Z,59.30
2017-11-21T01:00:23.277Z,59.20
2017-11-21T01:01:28.201Z,59.30
2017-11-21T01:02:32.904Z,59.20
2017-11-21T01:03:37.723Z,59.20
2017-11-21T01:04:42.320Z,59.20
2017-11-21T01:05:47.098Z,59.30
2017-11-21T01:06:51.693Z,59.30
2017-11-21T01:07:56.300Z,59.20
2017-11-21T01:09:00.891Z,59.20
2017-11-21T01:10:05.728Z,59.20
2017-11-21T01:11:10.262Z,59.20
2017-11-21T01:12:15.022Z,59.20
2017-11-21T01:13:19.682Z,59.20
2017-11-21T01:14:24.395Z,59.20
2017-11-21T01:15:29.219Z,59.20
2017-11-21T01:16:33.950Z,59.20
2017-11-21T01:17:38.920Z,59.20
2017-11-21T01:18:43.702Z,59.20
2017-11-21T01:19:48.441Z,59.30
2017-11-21T01:20:53.175Z,59.30
2017-11-21T01:22:00.962Z,59.20
2017-11-21T01:23:05.620Z,59.20
2017-11-21T01:24:10.239Z,59.20
2017-11-21T01:25:14.982Z,59.20
2017-11-21T01:26:19.694Z,59.20
2017-11-21T01:27:24.403Z,59.20
2017-11-21T01:28:29.084Z,59.20
2017-11-21T01:29:33.666Z,59.20
2017-11-21T01:30:38.346Z,59.20
2017-11-21T01:31:42.925Z,59.20
2017-11-21T01:32:47.678Z,59.20
2017-11-21T01:33:52.509Z,59.20
2017-11-21T01:34:57.212Z,59.20
2017-11-21T01:36:01.899Z,59.20
2017-11-21T01:37:06.671Z,59.20
2017-11-21T01:38:11.468Z,59.20
2017-11-21T01:39:16.178Z,59.20
2017-11-21T01:40:20.851Z,59.20
2017-11-21T01:41:25.518Z,59.20
2017-11-21T01:42:30.199Z,59.20
2017-11-21T01:43:34.730Z,59.20
2017-11-21T01:44:39.357Z,59.20
2017-11-21T01:45:43.956Z,59.20
2017-11-21T01:46:48.621Z,59.20
2017-11-21T01:47:53.210Z,59.20
2017-11-21T01:48:58.073Z,59.10
2017-11-21T01:50:02.604Z,59.20
2017-11-21T01:51:07.282Z,59.20
2017-11-21T01:52:11.826Z,59.10
2017-11-21T01:53:16.611Z,59.10
2017-11-21T01:54:21.374Z,59.00
2017-11-21T01:55:26.076Z,59.10
2017-11-21T01:56:30.728Z,59.10
2017-11-21T01:57:35.232Z,59.00
2017-11-21T01:58:39.966Z,59.10
2017-11-21T01:59:44.476Z,59.00
2017-11-21T02:00:49.130Z,59.10
2017-11-21T02:01:53.913Z,59.00
2017-11-21T02:02:58.409Z,59.00
2017-11-21T02:04:03.089Z,59.10
2017-11-21T02:05:07.725Z,59.00
2017-11-21T02:06:12.362Z,59.10
2017-11-21T02:07:16.982Z,59.10
2017-11-21T02:08:21.616Z,59.00
2017-11-21T02:09:26.378Z,59.00
2017-11-21T02:10:30.937Z,59.00
2017-11-21T02:11:35.567Z,59.00
2017-11-21T02:12:40.248Z,59.00
2017-11-21T02:13:44.867Z,59.00
2017-11-21T02:14:49.643Z,59.00
2017-11-21T02:15:54.240Z,59.00
2017-11-21T02:16:58.894Z,59.00
2017-11-21T02:18:03.591Z,59.00
2017-11-21T02:19:08.225Z,59.00
2017-11-21T02:20:12.907Z,59.00
2017-11-21T02:21:17.375Z,59.00
2017-11-21T02:22:21.912Z,59.00
2017-11-21T02:23:26.724Z,59.00
2017-11-21T02:24:31.308Z,59.00
2017-11-21T02:25:35.972Z,59.00
2017-11-21T02:26:40.754Z,59.00
2017-11-21T02:27:45.369Z,59.00
2017-11-21T02:28:50.051Z,59.00
2017-11-21T02:29:54.604Z,59.00
2017-11-21T02:30:59.125Z,59.00
2017-11-21T02:32:03.661Z,59.00
2017-11-21T02:33:08.431Z,59.00
2017-11-21T02:34:12.975Z,59.00
2017-11-21T02:35:17.734Z,59.00
2017-11-21T02:36:22.525Z,59.00
2017-11-21T02:37:27.301Z,59.00
2017-11-21T02:38:32.114Z,59.00
2017-11-21T02:39:36.902Z,58.90
2017-11-21T02:40:41.699Z,58.90
2017-11-21T02:41:46.366Z,59.00
2017-11-21T02:42:51.033Z,59.00
2017-11-21T02:43:55.709Z,58.90
2017-11-21T02:45:00.638Z,59.00
2017-11-21T02:46:05.291Z,59.00
2017-11-21T02:47:09.955Z,59.00
2017-11-21T02:48:14.634Z,59.00
2017-11-21T02:49:19.258Z,58.90
2017-11-21T02:50:24.096Z,58.90
2017-11-21T02:51:28.632Z,58.90
2017-11-21T02:52:33.205Z,58.90
2017-11-21T02:53:37.774Z,58.90
2017-11-21T02:54:42.600Z,58.90
2017-11-21T02:55:47.226Z,58.90
2017-11-21T02:56:52.415Z,58.90
2017-11-21T02:57:56.917Z,58.90
2017-11-21T02:59:01.437Z,58.80
2017-11-21T03:00:06.105Z,58.80
2017-11-21T03:01:10.660Z,58.80
2017-11-21T03:02:15.276Z,58.90
2017-11-21T03:03:19.928Z,58.90
2017-11-21T03:04:24.488Z,58.80
2017-11-21T03:05:29.359Z,58.90
2017-11-21T03:06:34.072Z,58.90
2017-11-21T03:07:38.642Z,58.80
2017-11-21T03:08:43.422Z,58.80
2017-11-21T03:09:48.098Z,58.90
2017-11-21T03:10:52.796Z,58.80
2017-11-21T03:11:57.403Z,58.70
2017-11-21T03:13:02.260Z,58.80
2017-11-21T03:14:06.855Z,58.80
2017-11-21T03:15:11.700Z,58.80
2017-11-21T03:16:16.399Z,58.70
2017-11-21T03:17:21.160Z,58.70
2017-11-21T03:18:25.912Z,58.70
2017-11-21T03:19:30.597Z,58.70
2017-11-21T03:20:35.326Z,58.70
2017-11-21T03:21:39.876Z,58.70
2017-11-21T03:22:44.549Z,58.70
2017-11-21T03:23:49.110Z,58.70
2017-11-21T03:24:53.899Z,58.70
2017-11-21T03:25:58.720Z,58.70
2017-11-21T03:27:03.462Z,58.70
2017-11-21T03:28:08.110Z,58.70
2017-11-21T03:29:12.820Z,58.70
2017-11-21T03:30:17.702Z,58.70
2017-11-21T03:31:22.289Z,58.70
2017-11-21T03:32:26.831Z,58.70
2017-11-21T03:33:31.398Z,58.70
2017-11-21T03:34:36.034Z,58.70
2017-11-21T03:35:40.772Z,58.70
2017-11-21T03:36:45.469Z,58.70
2017-11-21T03:37:50.202Z,58.70
2017-11-21T03:38:54.980Z,58.70
2017-11-21T03:39:59.820Z,58.70
2017-11-21T03:41:04.397Z,58.70
2017-11-21T03:42:08.964Z,58.60
2017-11-21T03:43:13.771Z,58.70
2017-11-21T03:44:18.454Z,58.60
2017-11-21T03:45:22.997Z,58.60
2017-11-21T03:46:27.703Z,58.60
2017-11-21T03:47:32.427Z,58.60
2017-11-21T03:48:37.139Z,58.60
2017-11-21T03:49:41.769Z,58.60
2017-11-21T03:50:46.671Z,58.60
2017-11-21T03:51:51.211Z,58.60
2017-11-21T03:52:56.070Z,58.60
2017-11-21T03:54:00.948Z,58.60
2017-11-21T03:55:05.556Z,58.60
2017-11-21T03:56:10.403Z,58.60
2017-11-21T03:57:15.250Z,58.60
2017-11-21T03:58:19.832Z,58.60
2017-11-21T03:59:24.534Z,58.60
2017-11-21T04:00:29.175Z,58.60
2017-11-21T04:01:33.909Z,58.60
2017-11-21T04:02:38.746Z,58.60
2017-11-21T04:03:43.639Z,58.60
2017-11-21T04:04:48.339Z,58.60
2017-11-21T04:05:53.071Z,58.60
2017-11-21T04:06:57.863Z,58.60
2017-11-21T04:08:02.699Z,58.60
2017-11-21T04:09:07.383Z,58.60
2017-11-21T04:10:12.062Z,58.50
2017-11-21T04:11:16.797Z,58.60
2017-11-21T04:12:21.378Z,58.60
2017-11-21T04:13:26.246Z,58.50
2017-11-21T04:14:31.062Z,58.50
2017-11-21T04:15:35.866Z,58.50
2017-11-21T04:16:40.596Z,58.50
2017-11-21T04:17:45.440Z,58.50
2017-11-21T04:18:50.204Z,58.50
2017-11-21T04:19:54.779Z,58.60
2017-11-21T04:20:59.590Z,58.50
2017-11-21T04:22:04.359Z,58.50
2017-11-21T04:23:09.043Z,58.50
2017-11-21T04:24:13.999Z,58.50
2017-11-21T04:25:18.586Z,58.50
2017-11-21T04:26:23.343Z,58.50
2017-11-21T04:27:28.035Z,58.50
2017-11-21T04:28:32.862Z,58.50
2017-11-21T04:29:38.047Z,58.50
2017-11-21T04:30:42.956Z,58.50
2017-11-21T04:31:47.967Z,58.50
2017-11-21T04:32:53.087Z,58.50
2017-11-21T04:33:58.131Z,58.50
2017-11-21T04:35:03.125Z,58.50
2017-11-21T04:36:08.133Z,58.40
2017-11-21T04:37:13.644Z,58.40
2017-11-21T04:38:20.669Z,58.40
2017-11-21T04:39:25.626Z,58.40
2017-11-21T04:40:30.825Z,58.50
2017-11-21T04:41:35.978Z,58.40
2017-11-21T04:42:41.098Z,58.40
2017-11-21T04:43:46.645Z,58.40
2017-11-21T04:44:51.740Z,58.30
2017-11-21T04:45:56.951Z,58.30
2017-11-21T04:47:02.637Z,58.30
2017-11-21T04:48:07.650Z,58.30
2017-11-21T04:49:13.566Z,58.30
2017-11-21T04:50:18.583Z,58.30
2017-11-21T04:51:23.718Z,58.30
2017-11-21T04:52:28.718Z,58.30
2017-11-21T04:53:33.814Z,58.30
2017-11-21T04:54:38.838Z,58.30
2017-11-21T04:55:44.041Z,58.30
2017-11-21T04:56:49.134Z,58.30
2017-11-21T04:57:54.035Z,58.30
2017-11-21T04:58:59.095Z,58.30
2017-11-21T05:00:04.534Z,58.30
2017-11-21T05:01:14.070Z,58.30
2017-11-21T05:02:22.396Z,58.30
2017-11-21T05:03:27.481Z,58.30
2017-11-21T05:04:33.784Z,58.30
2017-11-21T05:05:39.458Z,58.30
2017-11-21T05:06:44.585Z,58.20
2017-11-21T05:07:49.573Z,58.20
2017-11-21T05:08:54.753Z,58.20
2017-11-21T05:09:59.905Z,58.30
2017-11-21T05:11:04.881Z,58.20
2017-11-21T05:12:09.927Z,58.20
2017-11-21T05:13:14.850Z,58.30
2017-11-21T05:14:20.669Z,57.00
2017-11-21T05:15:25.661Z,54.40
2017-11-21T05:16:30.547Z,53.00
2017-11-21T05:17:35.689Z,52.20
2017-11-21T05:18:40.835Z,51.70
2017-11-21T05:19:45.978Z,51.10
2017-11-21T05:20:51.822Z,50.80
2017-11-21T05:21:57.347Z,50.30
2017-11-21T05:23:02.570Z,50.00
2017-11-21T05:24:07.590Z,49.80
2017-11-21T05:25:12.883Z,49.40
2017-11-21T05:26:18.671Z,50.10
2017-11-21T05:27:24.376Z,52.10
2017-11-21T05:28:30.241Z,53.50
2017-11-21T05:29:35.651Z,53.30
2017-11-21T05:30:41.589Z,52.80
2017-11-21T05:31:46.890Z,52.40
2017-11-21T05:32:52.172Z,52.30
2017-11-21T05:33:57.208Z,52.20
2017-11-21T05:35:02.705Z,52.30
2017-11-21T05:36:08.042Z,52.40
2017-11-21T05:37:13.559Z,52.60
2017-11-21T05:38:18.714Z,52.60
2017-11-21T05:39:24.134Z,52.70
2017-11-21T05:40:29.351Z,52.80
2017-11-21T05:41:35.524Z,52.90
2017-11-21T05:42:41.426Z,52.90
2017-11-21T05:43:46.923Z,53.00
2017-11-21T05:44:52.092Z,53.10
2017-11-21T05:45:57.391Z,53.10
2017-11-21T05:47:02.545Z,53.00
2017-11-21T05:48:08.677Z,53.00
2017-11-21T05:49:13.807Z,53.00
2017-11-21T05:50:19.146Z,52.90
2017-11-21T05:51:24.443Z,52.90
2017-11-21T05:52:29.445Z,52.80
2017-11-21T05:53:35.013Z,52.90
2017-11-21T05:54:41.737Z,52.70
2017-11-21T05:55:47.018Z,52.80
2017-11-21T05:56:52.140Z,52.80
2017-11-21T05:57:57.434Z,60.90
2017-11-21T05:59:02.831Z,53.50
2017-11-21T06:00:08.370Z,53.60
2017-11-21T06:01:13.413Z,73.40
2017-11-21T06:02:18.686Z,61.40
2017-11-21T06:03:24.589Z,60.70
2017-11-21T06:04:30.502Z,58.50
2017-11-21T06:05:35.784Z,57.10
2017-11-21T06:06:40.998Z,58.30
2017-11-21T06:07:46.155Z,58.30
2017-11-21T06:08:51.796Z,57.40
2017-11-21T06:09:57.958Z,58.30
2017-11-21T06:11:03.658Z,58.40
2017-11-21T06:12:08.739Z,57.90
2017-11-21T06:13:13.719Z,57.70
2017-11-21T06:14:19.122Z,56.90
2017-11-21T06:15:24.695Z,56.10
2017-11-21T06:16:29.876Z,55.60
2017-11-21T06:17:35.118Z,55.40
2017-11-21T06:18:40.208Z,55.20
2017-11-21T06:19:45.320Z,55.20
2017-11-21T06:20:50.611Z,55.20
2017-11-21T06:21:56.930Z,55.40
2017-11-21T06:23:02.679Z,55.50
2017-11-21T06:24:08.260Z,55.50
2017-11-21T06:25:13.278Z,55.60
2017-11-21T06:26:18.577Z,55.70
2017-11-21T06:27:23.597Z,55.80
2017-11-21T06:28:28.925Z,56.00
2017-11-21T06:29:34.681Z,56.10
2017-11-21T06:30:39.963Z,56.20
2017-11-21T06:31:45.057Z,56.40
2017-11-21T06:32:50.523Z,56.50
2017-11-21T06:33:55.857Z,56.70
2017-11-21T06:35:01.211Z,56.80
2017-11-21T06:36:06.605Z,57.10
2017-11-21T06:37:13.008Z,57.20
2017-11-21T06:38:18.892Z,57.30
2017-11-21T06:39:24.329Z,57.30
2017-11-21T06:40:29.747Z,57.50
2017-11-21T06:41:35.199Z,57.60
2017-11-21T06:42:40.848Z,57.70
2017-11-21T06:43:46.886Z,57.80
2017-11-21T06:44:52.290Z,57.90
2017-11-21T06:45:57.510Z,58.00
2017-11-21T06:47:02.812Z,58.30
2017-11-21T06:48:08.115Z,58.50
2017-11-21T06:49:13.464Z,58.50
2017-11-21T06:50:18.662Z,58.50
2017-11-21T06:51:24.004Z,58.60
2017-11-21T06:52:29.388Z,58.70
2017-11-21T06:53:35.293Z,58.70
2017-11-21T06:54:40.509Z,58.80
2017-11-21T06:55:45.964Z,59.00
2017-11-21T06:56:51.163Z,59.00
2017-11-21T06:57:56.522Z,58.60
2017-11-21T06:59:03.297Z,57.80
2017-11-21T07:00:08.925Z,57.30
2017-11-21T07:01:14.392Z,56.90
2017-11-21T07:02:19.805Z,56.50
2017-11-21T07:03:24.910Z,56.30
2017-11-21T07:04:30.166Z,56.10
2017-11-21T07:05:35.617Z,56.00
2017-11-21T07:06:40.951Z,55.70
2017-11-21T07:07:45.989Z,55.70
2017-11-21T07:08:51.258Z,55.60
2017-11-21T07:09:56.889Z,55.70
2017-11-21T07:11:02.485Z,55.60
2017-11-21T07:12:08.562Z,55.50
2017-11-21T07:13:13.845Z,55.60
2017-11-21T07:14:19.614Z,55.60
2017-11-21T07:15:25.192Z,55.60
2017-11-21T07:16:30.453Z,55.70
2017-11-21T07:17:35.706Z,55.70
2017-11-21T07:18:41.012Z,55.90
2017-11-21T07:19:46.298Z,55.90
2017-11-21T07:20:51.694Z,56.00
2017-11-21T07:21:56.971Z,56.00
2017-11-21T07:23:02.248Z,56.00
2017-11-21T07:24:07.420Z,56.10
2017-11-21T07:25:12.551Z,56.10
2017-11-21T07:26:18.526Z,56.10
2017-11-21T07:27:23.791Z,56.20
2017-11-21T07:28:28.748Z,56.50
2017-11-21T07:29:34.027Z,57.30
2017-11-21T07:30:39.525Z,56.70
2017-11-21T07:31:44.630Z,56.90
2017-11-21T07:32:50.888Z,57.00
2017-11-21T07:33:56.249Z,57.10
2017-11-21T07:35:01.532Z,57.70
2017-11-21T07:36:06.891Z,57.90
2017-11-21T07:37:12.226Z,58.50
2017-11-21T07:38:17.397Z,59.10
2017-11-21T07:39:22.678Z,59.30
2017-11-21T07:40:28.128Z,60.60
2017-11-21T07:41:33.652Z,62.40
2017-11-21T07:42:39.038Z,63.90
2017-11-21T07:43:44.372Z,67.40
2017-11-21T07:45:55.650Z,56.80
2017-11-21T07:47:01.177Z,57.40
2017-11-21T07:48:07.155Z,57.30
2017-11-21T07:49:12.919Z,57.30
2017-11-21T07:50:18.494Z,57.40
2017-11-21T07:51:23.832Z,57.40
2017-11-21T07:52:28.880Z,57.40
2017-11-21T07:53:34.106Z,57.40
2017-11-21T07:54:39.327Z,57.50
2017-11-21T07:55:44.814Z,57.50
2017-11-21T07:56:49.941Z,57.50
2017-11-21T07:57:55.303Z,57.50
2017-11-21T07:59:00.701Z,57.50
2017-11-21T08:00:07.093Z,57.60
2017-11-21T08:01:12.499Z,57.60
2017-11-21T08:02:17.645Z,57.40
2017-11-21T08:03:23.730Z,57.50
2017-11-21T08:04:29.189Z,57.50
2017-11-21T08:05:34.205Z,57.40
2017-11-21T08:06:39.613Z,57.40
2017-11-21T08:07:45.254Z,57.40
2017-11-21T08:08:50.561Z,57.40
2017-11-21T08:09:55.932Z,57.40
2017-11-21T08:11:01.304Z,57.50
2017-11-21T08:12:06.599Z,57.40
2017-11-21T08:13:12.093Z,57.30
2017-11-21T08:14:17.599Z,57.30
2017-11-21T08:15:23.804Z,57.30
2017-11-21T08:16:29.436Z,57.30
2017-11-21T08:17:34.689Z,57.30
2017-11-21T08:18:40.135Z,57.30
2017-11-21T08:19:45.519Z,57.30
2017-11-21T08:20:51.178Z,57.30
2017-11-21T08:21:56.361Z,57.40
2017-11-21T08:23:01.085Z,57.40
2017-11-21T08:24:06.020Z,57.40
2017-11-21T08:25:11.143Z,57.50
2017-11-21T08:26:16.048Z,57.50
2017-11-21T08:27:20.722Z,57.60
2017-11-21T08:28:25.465Z,57.60
2017-11-21T08:29:30.303Z,57.70
2017-11-21T08:30:35.308Z,57.80
2017-11-21T08:31:40.502Z,57.60
2017-11-21T08:32:46.093Z,57.30
2017-11-21T08:33:51.568Z,57.20
2017-11-21T08:34:57.000Z,57.30
2017-11-21T08:36:02.336Z,57.30
2017-11-21T08:37:08.764Z,57.50
2017-11-21T08:38:14.395Z,57.40
2017-11-21T08:39:19.945Z,57.50
2017-11-21T08:40:25.849Z,57.60
2017-11-21T08:41:31.405Z,57.60
2017-11-21T08:42:36.831Z,57.70
2017-11-21T08:43:42.228Z,57.70
2017-11-21T08:44:48.352Z,57.70
2017-11-21T08:45:53.684Z,57.70
2017-11-21T08:46:59.189Z,57.80
2017-11-21T08:48:04.453Z,57.90
2017-11-21T08:49:09.821Z,58.00
2017-11-21T08:50:15.686Z,58.00
2017-11-21T08:51:20.709Z,58.10
2017-11-21T08:52:26.027Z,58.10
2017-11-21T08:53:31.586Z,58.20
2017-11-21T08:54:36.895Z,58.30
2017-11-21T08:55:42.577Z,58.30
2017-11-21T08:56:47.919Z,58.30
2017-11-21T08:57:53.327Z,58.40
2017-11-21T08:58:58.596Z,58.40
2017-11-21T09:00:04.038Z,58.60
2017-11-21T09:01:09.414Z,58.60
2017-11-21T09:02:14.870Z,58.60
2017-11-21T09:03:20.326Z,58.80
2017-11-21T09:04:26.887Z,58.80
2017-11-21T09:05:32.066Z,58.80
2017-11-21T09:06:37.550Z,58.90
2017-11-21T09:07:42.689Z,58.90
2017-11-21T09:08:47.952Z,59.00
2017-11-21T09:09:53.196Z,59.00
2017-11-21T09:10:59.267Z,59.10
2017-11-21T09:12:04.772Z,59.10
2017-11-21T09:13:10.096Z,59.20
2017-11-21T09:14:15.570Z,59.20
2017-11-21T09:15:20.982Z,59.20
2017-11-21T09:16:26.343Z,59.20
2017-11-21T09:17:31.823Z,59.30
2017-11-21T09:18:37.225Z,59.40
2017-11-21T09:19:43.052Z,59.60
2017-11-21T09:20:48.646Z,59.50
2017-11-21T09:21:53.883Z,59.40
2017-11-21T09:22:58.923Z,60.00
2017-11-21T09:24:04.412Z,59.20
2017-11-21T09:25:09.634Z,59.10
2017-11-21T09:26:14.870Z,59.10
2017-11-21T09:27:20.139Z,59.10
2017-11-21T09:28:25.381Z,59.00
2017-11-21T09:29:30.746Z,59.00
2017-11-21T09:30:36.288Z,59.10
2017-11-21T09:31:41.414Z,59.10
2017-11-21T09:32:46.850Z,58.90
2017-11-21T09:33:52.493Z,58.80
2017-11-21T09:34:57.954Z,58.70
2017-11-21T09:36:03.229Z,58.70
2017-11-21T09:37:08.409Z,58.70
2017-11-21T09:38:13.756Z,58.80
2017-11-21T09:39:19.180Z,58.80
2017-11-21T09:40:24.484Z,58.80
2017-11-21T09:41:29.833Z,59.00
2017-11-21T09:42:35.325Z,58.80
2017-11-21T09:43:40.755Z,58.90
2017-11-21T09:44:46.777Z,58.90
2017-11-21T09:45:52.123Z,58.80
2017-11-21T09:46:57.330Z,58.80
2017-11-21T09:48:02.339Z,58.80
2017-11-21T09:49:07.807Z,58.80
2017-11-21T09:50:13.175Z,58.90
2017-11-21T09:51:18.653Z,58.80
2017-11-21T09:52:23.801Z,58.80
2017-11-21T09:53:31.409Z,58.70
2017-11-21T09:54:36.958Z,58.90
2017-11-21T09:55:42.167Z,58.70
2017-11-21T09:56:47.348Z,59.30
2017-11-21T09:57:52.812Z,58.60
2017-11-21T09:58:58.266Z,58.50
2017-11-21T10:00:04.064Z,58.50
2017-11-21T10:01:09.953Z,58.40
2017-11-21T10:02:15.234Z,58.50
2017-11-21T10:03:20.494Z,58.40
2017-11-21T10:04:26.327Z,58.50
2017-11-21T10:05:31.824Z,58.40
2017-11-21T10:06:37.128Z,58.30
2017-11-21T10:07:42.478Z,58.90
2017-11-21T10:08:49.426Z,58.40
2017-11-21T10:09:54.609Z,58.30
2017-11-21T10:11:00.010Z,58.30
2017-11-21T10:12:05.560Z,58.30
2017-11-21T10:13:11.084Z,58.30
2017-11-21T10:14:16.554Z,58.20
2017-11-21T10:15:21.949Z,58.30
2017-11-21T10:16:27.570Z,58.30
2017-11-21T10:17:32.997Z,58.40
2017-11-21T10:18:38.320Z,58.40
2017-11-21T10:19:43.541Z,58.50
2017-11-21T10:20:48.796Z,58.60
2017-11-21T10:21:53.906Z,58.50
2017-11-21T10:22:59.026Z,58.50
2017-11-21T10:24:04.599Z,58.60
2017-11-21T10:25:09.938Z,58.60
2017-11-21T10:26:15.172Z,58.60
2017-11-21T10:27:20.485Z,58.80
2017-11-21T10:28:25.811Z,58.70
2017-11-21T10:29:30.830Z,58.90
2017-11-21T10:30:35.884Z,59.00
2017-11-21T10:31:41.146Z,59.00
2017-11-21T10:32:46.389Z,59.00
2017-11-21T10:33:52.259Z,59.10
2017-11-21T10:34:57.650Z,59.00
2017-11-21T10:36:02.758Z,59.10
2017-11-21T10:37:07.941Z,59.00
2017-11-21T10:38:12.944Z,59.20
2017-11-21T10:39:18.215Z,59.10
2017-11-21T10:40:23.752Z,59.20
2017-11-21T10:41:29.160Z,59.10
2017-11-21T10:42:35.700Z,59.10
2017-11-21T10:43:40.957Z,59.00
2017-11-21T10:44:46.252Z,58.90
2017-11-21T10:45:51.577Z,58.80
2017-11-21T10:46:57.136Z,58.30
2017-11-21T10:48:02.469Z,58.00
2017-11-21T10:49:08.244Z,57.90
2017-11-21T10:50:14.137Z,57.90
2017-11-21T10:51:19.525Z,57.90
2017-11-21T10:52:25.299Z,58.30
2017-11-21T10:53:30.968Z,58.20
2017-11-21T10:54:36.429Z,57.40
2017-11-21T10:55:42.161Z,57.50
2017-11-21T10:56:47.577Z,57.50
2017-11-21T10:57:54.766Z,57.50
2017-11-21T10:58:59.860Z,57.50
2017-11-21T11:00:06.580Z,57.50
2017-11-21T11:01:12.206Z,57.40
2017-11-21T11:02:17.801Z,57.30
2017-11-21T11:03:24.115Z,57.10
2017-11-21T11:04:30.271Z,57.20
2017-11-21T11:05:35.794Z,57.10
2017-11-21T11:06:41.308Z,57.00
2017-11-21T11:07:46.663Z,56.90
2017-11-21T11:08:52.172Z,56.90
2017-11-21T11:09:57.281Z,57.00
2017-11-21T11:11:02.462Z,57.10
2017-11-21T11:12:07.710Z,57.10
2017-11-21T11:13:15.154Z,57.10
2017-11-21T11:14:20.718Z,57.10
2017-11-21T11:15:26.148Z,57.20
2017-11-21T11:16:31.686Z,57.20
2017-11-21T11:17:37.420Z,57.30
2017-11-21T11:18:43.177Z,57.50
2017-11-21T11:19:50.193Z,57.40
2017-11-21T11:20:56.361Z,57.50
2017-11-21T11:22:01.661Z,57.60
2017-11-21T11:23:06.871Z,57.60
2017-11-21T11:24:12.326Z,57.70
2017-11-21T11:25:17.607Z,57.70
2017-11-21T11:26:23.645Z,57.90
2017-11-21T11:27:29.606Z,58.00
2017-11-21T11:28:35.833Z,57.90
2017-11-21T11:29:41.321Z,58.00
2017-11-21T11:30:46.703Z,58.10
2017-11-21T11:31:51.995Z,58.20
2017-11-21T11:32:57.294Z,58.30
2017-11-21T11:34:02.905Z,58.40
2017-11-21T11:35:09.504Z,58.40
2017-11-21T11:36:15.058Z,58.40
2017-11-21T11:37:20.529Z,58.50
2017-11-21T11:38:26.623Z,58.60
2017-11-21T11:39:32.210Z,58.70
2017-11-21T11:40:37.318Z,58.70
2017-11-21T11:41:42.700Z,58.70
2017-11-21T11:42:48.173Z,58.90
2017-11-21T11:43:55.574Z,59.00
2017-11-21T11:45:01.153Z,59.00
2017-11-21T11:46:06.642Z,59.10
2017-11-21T11:47:12.089Z,59.30
2017-11-21T11:48:17.694Z,59.30
2017-11-21T11:49:22.878Z,59.40
2017-11-21T11:50:28.576Z,59.50
2017-11-21T11:51:33.964Z,59.50
2017-11-21T11:52:39.801Z,59.60
2017-11-21T11:53:45.402Z,59.70
2017-11-21T11:54:51.482Z,59.80
2017-11-21T11:55:57.389Z,59.80
2017-11-21T11:57:03.264Z,59.90
2017-11-21T11:58:08.721Z,59.90
2017-11-21T11:59:15.566Z,60.00
2017-11-21T12:00:21.363Z,60.10
2017-11-21T12:01:26.802Z,60.10
2017-11-21T12:02:31.981Z,60.20
2017-11-21T12:03:37.558Z,60.20
2017-11-21T12:04:43.054Z,60.00
2017-11-21T12:05:48.308Z,59.90
2017-11-21T12:06:53.767Z,59.60
2017-11-21T12:07:59.042Z,59.40
2017-11-21T12:09:05.096Z,59.40
2017-11-21T12:10:10.935Z,59.20
2017-11-21T12:11:16.274Z,59.20
2017-11-21T12:12:21.710Z,59.10
2017-11-21T12:13:27.549Z,59.00
2017-11-21T12:14:34.822Z,59.00
2017-11-21T12:15:39.984Z,59.00
2017-11-21T12:16:46.175Z,58.80
2017-11-21T12:17:51.836Z,58.70
2017-11-21T12:18:57.024Z,58.70
2017-11-21T12:20:02.482Z,58.80
2017-11-21T12:21:08.118Z,58.80
2017-11-21T12:22:13.688Z,58.90
2017-11-21T12:23:19.000Z,59.00
2017-11-21T12:24:24.818Z,59.10
2017-11-21T12:25:30.227Z,59.10
2017-11-21T12:26:35.728Z,59.10
2017-11-21T12:27:41.442Z,59.20
2017-11-21T12:28:46.906Z,59.30
2017-11-21T12:29:54.536Z,59.40
2017-11-21T12:30:59.852Z,59.40
2017-11-21T12:32:05.358Z,59.50
2017-11-21T12:33:10.866Z,59.50
2017-11-21T12:34:16.629Z,59.50
2017-11-21T12:35:21.901Z,59.60
2017-11-21T12:36:27.196Z,59.70
2017-11-21T12:37:32.532Z,59.70
2017-11-21T12:38:38.001Z,59.80
2017-11-21T12:39:43.696Z,59.80
2017-11-21T12:40:49.395Z,59.90
2017-11-21T12:41:54.934Z,59.90
2017-11-21T12:43:00.465Z,59.90
2017-11-21T12:44:05.979Z,60.00
2017-11-21T12:45:13.810Z,60.00
2017-11-21T12:46:19.359Z,60.00
2017-11-21T12:47:24.760Z,60.10
2017-11-21T12:48:30.348Z,60.20
2017-11-21T12:49:35.881Z,60.30
2017-11-21T12:50:41.079Z,60.20
2017-11-21T12:51:46.749Z,60.20
2017-11-21T12:52:52.062Z,60.30
2017-11-21T12:53:57.351Z,60.30
2017-11-21T12:55:03.732Z,60.00
2017-11-21T12:56:09.203Z,59.70
2017-11-21T12:57:14.737Z,59.40
2017-11-21T12:58:20.102Z,59.20
2017-11-21T12:59:25.282Z,59.10
2017-11-21T13:00:33.158Z,58.90
2017-11-21T13:01:38.726Z,58.80
2017-11-21T13:02:44.699Z,58.60
2017-11-21T13:03:50.590Z,58.50
2017-11-21T13:04:56.081Z,58.50
2017-11-21T13:06:01.492Z,58.40
2017-11-21T13:07:06.927Z,58.30
2017-11-21T13:08:12.505Z,58.30
2017-11-21T13:09:18.861Z,58.30
2017-11-21T13:10:24.924Z,58.30
2017-11-21T13:11:30.545Z,58.40
2017-11-21T13:12:36.147Z,58.40
2017-11-21T13:13:41.775Z,58.50
2017-11-21T13:14:47.393Z,58.60
2017-11-21T13:15:52.736Z,58.60
2017-11-21T13:16:58.790Z,58.60
2017-11-21T13:18:04.542Z,58.60
2017-11-21T13:19:10.036Z,58.60
2017-11-21T13:20:15.284Z,58.60
2017-11-21T13:21:20.626Z,58.70
2017-11-21T13:22:26.375Z,58.70
2017-11-21T13:23:31.825Z,58.70
2017-11-21T13:24:37.175Z,58.80
2017-11-21T13:25:43.603Z,58.80
2017-11-21T13:26:49.260Z,58.80
2017-11-21T13:27:54.874Z,58.70
2017-11-21T13:29:00.511Z,58.80
2017-11-21T13:30:05.957Z,58.80
2017-11-21T13:31:13.476Z,58.80
2017-11-21T13:32:19.418Z,58.90
2017-11-21T13:33:25.065Z,59.00
2017-11-21T13:34:30.446Z,59.00
2017-11-21T13:35:35.769Z,59.00
2017-11-21T13:36:41.209Z,59.10
2017-11-21T13:37:46.925Z,59.10
2017-11-21T13:38:52.448Z,59.10
2017-11-21T13:39:57.813Z,59.20
2017-11-21T13:41:04.072Z,59.10
2017-11-21T13:42:09.348Z,59.30
2017-11-21T13:43:14.579Z,59.30
2017-11-21T13:44:20.046Z,59.40
2017-11-21T13:45:25.633Z,59.40
2017-11-21T13:46:32.590Z,59.50
2017-11-21T13:47:38.080Z,59.60
2017-11-21T13:48:43.245Z,59.50
2017-11-21T13:49:49.132Z,59.60
2017-11-21T13:50:54.529Z,59.60
2017-11-21T13:52:00.354Z,59.70
2017-11-21T13:53:05.875Z,59.70
2017-11-21T13:54:11.515Z,59.80
2017-11-21T13:55:16.924Z,59.70
2017-11-21T13:56:23.360Z,59.70
2017-11-21T13:57:28.931Z,59.70
2017-11-21T13:58:34.672Z,59.80
2017-11-21T13:59:40.279Z,59.80
2017-11-21T14:00:45.643Z,59.90
2017-11-21T14:01:53.717Z,59.90